sensor_id;sensor_type;location;lat;lon;timestamp;temperature;humidity
74376;HTU21D;62812;55.188;61.302;2023-11-19T00:01:05;-6.11;63.17
74376;HTU21D;62812;55.188;61.302;2023-11-19T00:03:32;-6.07;63.41
74376;HTU21D;62812;55.188;61.302;2023-11-19T00:06:00;-6.04;63.70
74376;HTU21D;62812;55.188;61.302;2023-11-19T00:08:26;-6.03;63.60
74376;HTU21D;62812;55.188;61.302;2023-11-19T00:10:55;-6.03;63.62
74376;HTU21D;62812;55.188;61.302;2023-11-19T00:13:21;-6.05;64.19
74376;HTU21D;62812;55.188;61.302;2023-11-19T00:15:49;-6.04;64.79
74376;HTU21D;62812;55.188;61.302;2023-11-19T00:18:16;-5.97;64.52
74376;HTU21D;62812;55.188;61.302;2023-11-19T00:20:43;-5.91;64.81
74376;HTU21D;62812;55.188;61.302;2023-11-19T00:23:11;-5.87;64.83
74376;HTU21D;62812;55.188;61.302;2023-11-19T00:25:39;-5.84;65.19
74376;HTU21D;62812;55.188;61.302;2023-11-19T00:28:08;-5.81;65.23
74376;HTU21D;62812;55.188;61.302;2023-11-19T00:30:35;-5.74;65.30
74376;HTU21D;62812;55.188;61.302;2023-11-19T00:33:02;-5.77;65.37
74376;HTU21D;62812;55.188;61.302;2023-11-19T00:35:30;-5.81;65.03
74376;HTU21D;62812;55.188;61.302;2023-11-19T00:37:58;-5.85;65.02
74376;HTU21D;62812;55.188;61.302;2023-11-19T00:40:25;-5.87;64.76
74376;HTU21D;62812;55.188;61.302;2023-11-19T00:42:52;-5.88;65.30
74376;HTU21D;62812;55.188;61.302;2023-11-19T00:45:20;-5.89;65.17
74376;HTU21D;62812;55.188;61.302;2023-11-19T00:47:47;-5.88;65.21
74376;HTU21D;62812;55.188;61.302;2023-11-19T00:50:16;-5.90;65.30
74376;HTU21D;62812;55.188;61.302;2023-11-19T00:52:43;-5.94;65.72
74376;HTU21D;62812;55.188;61.302;2023-11-19T00:55:10;-6.01;65.63
74376;HTU21D;62812;55.188;61.302;2023-11-19T00:57:38;-6.06;64.82
74376;HTU21D;62812;55.188;61.302;2023-11-19T01:00:06;-6.05;64.91
74376;HTU21D;62812;55.188;61.302;2023-11-19T01:02:48;-6.04;64.94
74376;HTU21D;62812;55.188;61.302;2023-11-19T01:05:16;-6.03;64.10
74376;HTU21D;62812;55.188;61.302;2023-11-19T01:07:43;-6.03;63.78
74376;HTU21D;62812;55.188;61.302;2023-11-19T01:10:10;-6.07;63.92
74376;HTU21D;62812;55.188;61.302;2023-11-19T01:12:37;-6.03;63.60
74376;HTU21D;62812;55.188;61.302;2023-11-19T01:15:05;-6.04;63.81
74376;HTU21D;62812;55.188;61.302;2023-11-19T01:17:31;-6.04;63.69
74376;HTU21D;62812;55.188;61.302;2023-11-19T01:19:59;-6.05;63.48
74376;HTU21D;62812;55.188;61.302;2023-11-19T01:22:26;-6.04;63.11
74376;HTU21D;62812;55.188;61.302;2023-11-19T01:24:55;-6.02;62.77
74376;HTU21D;62812;55.188;61.302;2023-11-19T01:27:21;-6.01;63.11
74376;HTU21D;62812;55.188;61.302;2023-11-19T01:29:48;-5.97;63.61
74376;HTU21D;62812;55.188;61.302;2023-11-19T01:32:15;-5.92;63.85
74376;HTU21D;62812;55.188;61.302;2023-11-19T01:34:42;-5.89;64.11
74376;HTU21D;62812;55.188;61.302;2023-11-19T01:37:10;-5.85;63.75
74376;HTU21D;62812;55.188;61.302;2023-11-19T01:39:38;-5.86;63.69
74376;HTU21D;62812;55.188;61.302;2023-11-19T01:42:05;-5.84;64.43
74376;HTU21D;62812;55.188;61.302;2023-11-19T01:44:32;-5.84;64.27
74376;HTU21D;62812;55.188;61.302;2023-11-19T01:46:59;-5.82;64.59
74376;HTU21D;62812;55.188;61.302;2023-11-19T01:49:27;-5.85;63.34
74376;HTU21D;62812;55.188;61.302;2023-11-19T01:51:55;-5.85;63.31
74376;HTU21D;62812;55.188;61.302;2023-11-19T01:54:25;-5.83;63.80
74376;HTU21D;62812;55.188;61.302;2023-11-19T01:56:53;-5.79;63.86
74376;HTU21D;62812;55.188;61.302;2023-11-19T01:59:22;-5.73;64.06
74376;HTU21D;62812;55.188;61.302;2023-11-19T02:01:53;-5.75;63.89
74376;HTU21D;62812;55.188;61.302;2023-11-19T02:04:21;-5.77;63.71
74376;HTU21D;62812;55.188;61.302;2023-11-19T02:06:48;-5.81;64.16
74376;HTU21D;62812;55.188;61.302;2023-11-19T02:09:19;-5.83;63.95
74376;HTU21D;62812;55.188;61.302;2023-11-19T02:11:47;-5.87;63.30
74376;HTU21D;62812;55.188;61.302;2023-11-19T02:14:17;-5.93;63.35
74376;HTU21D;62812;55.188;61.302;2023-11-19T02:16:44;-5.94;63.88
74376;HTU21D;62812;55.188;61.302;2023-11-19T02:19:11;-5.93;64.27
74376;HTU21D;62812;55.188;61.302;2023-11-19T02:21:38;-5.96;63.70
74376;HTU21D;62812;55.188;61.302;2023-11-19T02:24:06;-5.98;64.20
74376;HTU21D;62812;55.188;61.302;2023-11-19T02:26:40;-5.99;63.89
74376;HTU21D;62812;55.188;61.302;2023-11-19T02:29:09;-5.99;63.74
74376;HTU21D;62812;55.188;61.302;2023-11-19T02:31:36;-5.99;63.55
74376;HTU21D;62812;55.188;61.302;2023-11-19T02:34:04;-5.99;63.36
74376;HTU21D;62812;55.188;61.302;2023-11-19T02:36:32;-5.99;63.22
74376;HTU21D;62812;55.188;61.302;2023-11-19T02:38:59;-5.99;63.47
74376;HTU21D;62812;55.188;61.302;2023-11-19T02:41:25;-5.97;63.92
74376;HTU21D;62812;55.188;61.302;2023-11-19T02:43:52;-5.92;62.98
74376;HTU21D;62812;55.188;61.302;2023-11-19T02:46:21;-5.88;63.53
74376;HTU21D;62812;55.188;61.302;2023-11-19T02:48:48;-5.81;62.90
74376;HTU21D;62812;55.188;61.302;2023-11-19T02:51:15;-5.77;62.42
74376;HTU21D;62812;55.188;61.302;2023-11-19T02:53:42;-5.78;62.36
74376;HTU21D;62812;55.188;61.302;2023-11-19T02:56:10;-5.78;62.16
74376;HTU21D;62812;55.188;61.302;2023-11-19T02:58:51;-5.82;62.58
74376;HTU21D;62812;55.188;61.302;2023-11-19T03:01:24;-5.78;62.42
74376;HTU21D;62812;55.188;61.302;2023-11-19T03:03:56;-5.78;62.09
74376;HTU21D;62812;55.188;61.302;2023-11-19T03:06:24;-5.71;62.88
74376;HTU21D;62812;55.188;61.302;2023-11-19T03:08:51;-5.63;62.13
74376;HTU21D;62812;55.188;61.302;2023-11-19T03:11:18;-5.63;62.37
74376;HTU21D;62812;55.188;61.302;2023-11-19T03:13:45;-5.65;62.34
74376;HTU21D;62812;55.188;61.302;2023-11-19T03:16:13;-5.67;62.68
74376;HTU21D;62812;55.188;61.302;2023-11-19T03:18:41;-5.68;62.70
74376;HTU21D;62812;55.188;61.302;2023-11-19T03:21:07;-5.73;62.95
74376;HTU21D;62812;55.188;61.302;2023-11-19T03:23:35;-5.72;63.08
74376;HTU21D;62812;55.188;61.302;2023-11-19T03:26:03;-5.71;63.35
74376;HTU21D;62812;55.188;61.302;2023-11-19T03:28:31;-5.76;63.21
74376;HTU21D;62812;55.188;61.302;2023-11-19T03:30:58;-5.77;63.48
74376;HTU21D;62812;55.188;61.302;2023-11-19T03:33:25;-5.82;63.88
74376;HTU21D;62812;55.188;61.302;2023-11-19T03:35:56;-5.69;64.05
74376;HTU21D;62812;55.188;61.302;2023-11-19T03:38:23;-5.58;64.04
74376;HTU21D;62812;55.188;61.302;2023-11-19T03:40:51;-5.56;63.52
74376;HTU21D;62812;55.188;61.302;2023-11-19T03:43:18;-5.59;63.77
74376;HTU21D;62812;55.188;61.302;2023-11-19T03:45:48;-5.62;63.61
74376;HTU21D;62812;55.188;61.302;2023-11-19T03:48:15;-5.60;63.99
74376;HTU21D;62812;55.188;61.302;2023-11-19T03:50:45;-5.61;64.03
74376;HTU21D;62812;55.188;61.302;2023-11-19T03:53:13;-5.64;64.40
74376;HTU21D;62812;55.188;61.302;2023-11-19T03:55:39;-5.61;64.43
74376;HTU21D;62812;55.188;61.302;2023-11-19T03:58:06;-5.59;64.32
74376;HTU21D;62812;55.188;61.302;2023-11-19T04:00:55;-5.56;64.24
74376;HTU21D;62812;55.188;61.302;2023-11-19T04:03:37;-5.52;64.04
74376;HTU21D;62812;55.188;61.302;2023-11-19T04:06:17;-5.46;63.97
74376;HTU21D;62812;55.188;61.302;2023-11-19T04:08:46;-5.41;64.21
74376;HTU21D;62812;55.188;61.302;2023-11-19T04:11:12;-5.39;63.85
74376;HTU21D;62812;55.188;61.302;2023-11-19T04:13:57;-5.39;63.61
74376;HTU21D;62812;55.188;61.302;2023-11-19T04:16:28;-5.37;63.94
74376;HTU21D;62812;55.188;61.302;2023-11-19T04:19:11;-5.33;63.62
74376;HTU21D;62812;55.188;61.302;2023-11-19T04:21:40;-5.30;63.76
74376;HTU21D;62812;55.188;61.302;2023-11-19T04:24:11;-5.19;64.11
74376;HTU21D;62812;55.188;61.302;2023-11-19T04:26:40;-5.02;63.68
74376;HTU21D;62812;55.188;61.302;2023-11-19T04:29:06;-4.99;63.08
74376;HTU21D;62812;55.188;61.302;2023-11-19T04:31:38;-5.00;63.58
74376;HTU21D;62812;55.188;61.302;2023-11-19T04:34:05;-5.01;63.59
74376;HTU21D;62812;55.188;61.302;2023-11-19T04:40:57;-5.05;65.04
74376;HTU21D;62812;55.188;61.302;2023-11-19T04:43:24;-5.07;65.07
74376;HTU21D;62812;55.188;61.302;2023-11-19T04:45:51;-5.05;65.60
74376;HTU21D;62812;55.188;61.302;2023-11-19T04:48:23;-5.04;65.59
74376;HTU21D;62812;55.188;61.302;2023-11-19T04:50:50;-5.00;66.78
74376;HTU21D;62812;55.188;61.302;2023-11-19T04:53:22;-4.94;66.75
74376;HTU21D;62812;55.188;61.302;2023-11-19T04:55:49;-4.82;66.21
74376;HTU21D;62812;55.188;61.302;2023-11-19T04:58:19;-4.69;66.38
74376;HTU21D;62812;55.188;61.302;2023-11-19T05:01:14;-4.65;65.99
74376;HTU21D;62812;55.188;61.302;2023-11-19T05:03:46;-4.61;65.48
74376;HTU21D;62812;55.188;61.302;2023-11-19T05:09:54;-4.66;65.86
74376;HTU21D;62812;55.188;61.302;2023-11-19T05:12:21;-4.66;65.94
74376;HTU21D;62812;55.188;61.302;2023-11-19T05:14:52;-4.67;66.49
74376;HTU21D;62812;55.188;61.302;2023-11-19T05:17:19;-4.65;66.88
74376;HTU21D;62812;55.188;61.302;2023-11-19T05:19:49;-4.60;66.46
74376;HTU21D;62812;55.188;61.302;2023-11-19T05:22:17;-4.60;66.04
74376;HTU21D;62812;55.188;61.302;2023-11-19T05:24:47;-4.58;66.27
74376;HTU21D;62812;55.188;61.302;2023-11-19T05:27:14;-4.56;67.04
74376;HTU21D;62812;55.188;61.302;2023-11-19T05:29:41;-4.56;66.63
74376;HTU21D;62812;55.188;61.302;2023-11-19T05:32:13;-4.53;67.53
74376;HTU21D;62812;55.188;61.302;2023-11-19T05:34:40;-4.50;67.73
74376;HTU21D;62812;55.188;61.302;2023-11-19T05:37:07;-4.48;67.41
74376;HTU21D;62812;55.188;61.302;2023-11-19T05:42:21;-4.42;67.72
74376;HTU21D;62812;55.188;61.302;2023-11-19T05:44:50;-4.37;67.32
74376;HTU21D;62812;55.188;61.302;2023-11-19T05:47:21;-4.31;67.43
74376;HTU21D;62812;55.188;61.302;2023-11-19T05:50:13;-4.26;67.90
74376;HTU21D;62812;55.188;61.302;2023-11-19T05:52:40;-4.21;68.59
74376;HTU21D;62812;55.188;61.302;2023-11-19T05:55:07;-4.10;69.42
74376;HTU21D;62812;55.188;61.302;2023-11-19T05:57:36;-4.07;67.71
74376;HTU21D;62812;55.188;61.302;2023-11-19T06:00:12;-3.99;68.53
74376;HTU21D;62812;55.188;61.302;2023-11-19T06:02:41;-3.93;68.69
74376;HTU21D;62812;55.188;61.302;2023-11-19T06:05:10;-3.86;67.89
74376;HTU21D;62812;55.188;61.302;2023-11-19T06:07:37;-3.83;67.09
74376;HTU21D;62812;55.188;61.302;2023-11-19T06:10:09;-3.76;67.61
74376;HTU21D;62812;55.188;61.302;2023-11-19T06:12:37;-3.75;65.82
74376;HTU21D;62812;55.188;61.302;2023-11-19T06:15:09;-3.69;65.53
74376;HTU21D;62812;55.188;61.302;2023-11-19T06:17:45;-3.70;64.40
74376;HTU21D;62812;55.188;61.302;2023-11-19T06:20:14;-3.70;63.48
74376;HTU21D;62812;55.188;61.302;2023-11-19T06:22:44;-3.66;64.43
74376;HTU21D;62812;55.188;61.302;2023-11-19T06:25:14;-3.67;63.95
74376;HTU21D;62812;55.188;61.302;2023-11-19T06:28:12;-3.53;65.12
74376;HTU21D;62812;55.188;61.302;2023-11-19T06:30:46;-3.46;63.23
74376;HTU21D;62812;55.188;61.302;2023-11-19T06:33:14;-3.41;62.64
74376;HTU21D;62812;55.188;61.302;2023-11-19T06:35:42;-3.43;63.23
74376;HTU21D;62812;55.188;61.302;2023-11-19T06:38:25;-3.51;62.52
74376;HTU21D;62812;55.188;61.302;2023-11-19T06:40:53;-3.52;64.01
74376;HTU21D;62812;55.188;61.302;2023-11-19T06:43:24;-3.47;64.72
74376;HTU21D;62812;55.188;61.302;2023-11-19T06:45:54;-3.38;64.51
74376;HTU21D;62812;55.188;61.302;2023-11-19T06:48:24;-3.38;64.43
74376;HTU21D;62812;55.188;61.302;2023-11-19T06:50:54;-3.35;65.42
74376;HTU21D;62812;55.188;61.302;2023-11-19T06:53:23;-3.33;65.24
74376;HTU21D;62812;55.188;61.302;2023-11-19T06:55:50;-3.27;64.82
74376;HTU21D;62812;55.188;61.302;2023-11-19T06:58:17;-3.21;67.14
74376;HTU21D;62812;55.188;61.302;2023-11-19T07:00:46;-3.26;64.67
74376;HTU21D;62812;55.188;61.302;2023-11-19T07:03:16;-3.24;64.74
74376;HTU21D;62812;55.188;61.302;2023-11-19T07:05:50;-3.28;62.22
74376;HTU21D;62812;55.188;61.302;2023-11-19T07:08:17;-3.26;61.44
74376;HTU21D;62812;55.188;61.302;2023-11-19T07:10:43;-3.28;62.03
74376;HTU21D;62812;55.188;61.302;2023-11-19T07:13:13;-3.26;61.71
74376;HTU21D;62812;55.188;61.302;2023-11-19T07:15:40;-3.20;61.35
74376;HTU21D;62812;55.188;61.302;2023-11-19T07:18:07;-3.26;60.32
74376;HTU21D;62812;55.188;61.302;2023-11-19T07:20:34;-3.22;60.92
74376;HTU21D;62812;55.188;61.302;2023-11-19T07:23:02;-3.12;60.93
74376;HTU21D;62812;55.188;61.302;2023-11-19T07:25:30;-3.09;61.69
74376;HTU21D;62812;55.188;61.302;2023-11-19T07:27:58;-3.09;60.34
74376;HTU21D;62812;55.188;61.302;2023-11-19T07:30:27;-3.02;60.74
74376;HTU21D;62812;55.188;61.302;2023-11-19T07:32:55;-2.98;60.69
74376;HTU21D;62812;55.188;61.302;2023-11-19T07:35:24;-3.02;60.94
74376;HTU21D;62812;55.188;61.302;2023-11-19T07:37:51;-3.03;61.96
74376;HTU21D;62812;55.188;61.302;2023-11-19T07:40:20;-3.05;63.84
74376;HTU21D;62812;55.188;61.302;2023-11-19T07:42:47;-2.98;61.32
74376;HTU21D;62812;55.188;61.302;2023-11-19T07:45:17;-3.03;61.87
74376;HTU21D;62812;55.188;61.302;2023-11-19T07:47:44;-3.08;61.42
74376;HTU21D;62812;55.188;61.302;2023-11-19T07:50:12;-3.15;60.24
74376;HTU21D;62812;55.188;61.302;2023-11-19T07:52:53;-3.12;60.12
74376;HTU21D;62812;55.188;61.302;2023-11-19T07:55:22;-3.16;60.89
74376;HTU21D;62812;55.188;61.302;2023-11-19T07:57:49;-3.11;61.63
74376;HTU21D;62812;55.188;61.302;2023-11-19T08:00:16;-3.19;61.63
74376;HTU21D;62812;55.188;61.302;2023-11-19T08:02:43;-3.16;62.45
74376;HTU21D;62812;55.188;61.302;2023-11-19T08:05:09;-3.15;63.21
74376;HTU21D;62812;55.188;61.302;2023-11-19T08:07:36;-3.18;62.35
74376;HTU21D;62812;55.188;61.302;2023-11-19T08:10:04;-3.19;61.96
74376;HTU21D;62812;55.188;61.302;2023-11-19T08:12:33;-3.16;63.44
74376;HTU21D;62812;55.188;61.302;2023-11-19T08:15:02;-3.11;64.57
74376;HTU21D;62812;55.188;61.302;2023-11-19T08:17:28;-2.98;65.87
74376;HTU21D;62812;55.188;61.302;2023-11-19T08:19:55;-2.93;63.58
74376;HTU21D;62812;55.188;61.302;2023-11-19T08:22:22;-2.80;64.48
74376;HTU21D;62812;55.188;61.302;2023-11-19T08:24:49;-2.80;63.28
74376;HTU21D;62812;55.188;61.302;2023-11-19T08:27:15;-2.80;63.24
74376;HTU21D;62812;55.188;61.302;2023-11-19T08:29:44;-2.73;61.39
74376;HTU21D;62812;55.188;61.302;2023-11-19T08:32:10;-2.74;60.69
74376;HTU21D;62812;55.188;61.302;2023-11-19T08:34:37;-2.69;59.82
74376;HTU21D;62812;55.188;61.302;2023-11-19T08:37:04;-2.67;60.81
74376;HTU21D;62812;55.188;61.302;2023-11-19T08:39:30;-2.63;59.97
74376;HTU21D;62812;55.188;61.302;2023-11-19T08:41:57;-2.66;60.02
74376;HTU21D;62812;55.188;61.302;2023-11-19T08:44:24;-2.62;59.94
74376;HTU21D;62812;55.188;61.302;2023-11-19T08:46:52;-2.64;59.09
74376;HTU21D;62812;55.188;61.302;2023-11-19T08:49:20;-2.62;58.71
74376;HTU21D;62812;55.188;61.302;2023-11-19T08:51:51;-2.57;60.19
74376;HTU21D;62812;55.188;61.302;2023-11-19T08:54:18;-2.57;59.73
74376;HTU21D;62812;55.188;61.302;2023-11-19T08:56:47;-2.43;59.83
74376;HTU21D;62812;55.188;61.302;2023-11-19T08:59:14;-2.24;59.80
74376;HTU21D;62812;55.188;61.302;2023-11-19T09:01:44;-2.13;58.58
74376;HTU21D;62812;55.188;61.302;2023-11-19T09:04:19;-2.09;60.67
74376;HTU21D;62812;55.188;61.302;2023-11-19T09:06:48;-2.02;58.61
74376;HTU21D;62812;55.188;61.302;2023-11-19T09:09:15;-1.85;58.50
74376;HTU21D;62812;55.188;61.302;2023-11-19T09:11:42;-1.74;57.10
74376;HTU21D;62812;55.188;61.302;2023-11-19T09:14:13;-1.82;56.03
74376;HTU21D;62812;55.188;61.302;2023-11-19T09:16:44;-1.84;59.09
74376;HTU21D;62812;55.188;61.302;2023-11-19T09:19:11;-1.73;55.67
74376;HTU21D;62812;55.188;61.302;2023-11-19T09:22:08;-1.83;54.78
74376;HTU21D;62812;55.188;61.302;2023-11-19T09:24:35;-1.90;54.23
74376;HTU21D;62812;55.188;61.302;2023-11-19T09:27:03;-1.97;53.63
74376;HTU21D;62812;55.188;61.302;2023-11-19T09:29:32;-2.04;54.50
74376;HTU21D;62812;55.188;61.302;2023-11-19T09:31:59;-2.09;53.42
74376;HTU21D;62812;55.188;61.302;2023-11-19T09:34:26;-2.20;53.36
74376;HTU21D;62812;55.188;61.302;2023-11-19T09:36:53;-2.27;53.88
74376;HTU21D;62812;55.188;61.302;2023-11-19T09:39:21;-2.30;53.54
74376;HTU21D;62812;55.188;61.302;2023-11-19T09:41:47;-2.36;53.70
74376;HTU21D;62812;55.188;61.302;2023-11-19T09:44:15;-2.39;53.81
74376;HTU21D;62812;55.188;61.302;2023-11-19T09:46:44;-2.42;55.86
74376;HTU21D;62812;55.188;61.302;2023-11-19T09:49:13;-2.43;55.52
74376;HTU21D;62812;55.188;61.302;2023-11-19T09:51:46;-2.39;54.67
74376;HTU21D;62812;55.188;61.302;2023-11-19T09:54:13;-2.37;54.06
74376;HTU21D;62812;55.188;61.302;2023-11-19T09:56:41;-2.43;53.97
74376;HTU21D;62812;55.188;61.302;2023-11-19T09:59:08;-2.47;54.81
74376;HTU21D;62812;55.188;61.302;2023-11-19T10:01:38;-2.59;54.87
74376;HTU21D;62812;55.188;61.302;2023-11-19T10:04:06;-2.58;54.28
74376;HTU21D;62812;55.188;61.302;2023-11-19T10:06:34;-2.58;53.86
74376;HTU21D;62812;55.188;61.302;2023-11-19T10:09:00;-2.53;54.52
74376;HTU21D;62812;55.188;61.302;2023-11-19T10:11:29;-2.59;55.43
74376;HTU21D;62812;55.188;61.302;2023-11-19T10:13:59;-2.57;54.17
74376;HTU21D;62812;55.188;61.302;2023-11-19T10:16:28;-2.60;55.53
74376;HTU21D;62812;55.188;61.302;2023-11-19T10:18:56;-2.59;56.67
74376;HTU21D;62812;55.188;61.302;2023-11-19T10:21:22;-2.60;56.19
74376;HTU21D;62812;55.188;61.302;2023-11-19T10:23:50;-2.54;53.77
74376;HTU21D;62812;55.188;61.302;2023-11-19T10:26:18;-2.53;53.30
74376;HTU21D;62812;55.188;61.302;2023-11-19T10:28:56;-2.64;55.11
74376;HTU21D;62812;55.188;61.302;2023-11-19T10:31:24;-2.66;54.69
74376;HTU21D;62812;55.188;61.302;2023-11-19T10:33:52;-2.67;53.55
74376;HTU21D;62812;55.188;61.302;2023-11-19T10:36:19;-2.67;54.24
74376;HTU21D;62812;55.188;61.302;2023-11-19T10:38:52;-2.75;53.91
74376;HTU21D;62812;55.188;61.302;2023-11-19T10:41:27;-2.69;54.66
74376;HTU21D;62812;55.188;61.302;2023-11-19T10:47:34;-2.75;52.99
74376;HTU21D;62812;55.188;61.302;2023-11-19T10:50:08;-2.80;53.57
74376;HTU21D;62812;55.188;61.302;2023-11-19T10:52:35;-2.86;53.63
74376;HTU21D;62812;55.188;61.302;2023-11-19T10:55:19;-2.84;53.20
74376;HTU21D;62812;55.188;61.302;2023-11-19T10:58:29;-2.88;53.33
74376;HTU21D;62812;55.188;61.302;2023-11-19T11:01:24;-2.91;53.78
74376;HTU21D;62812;55.188;61.302;2023-11-19T11:03:55;-2.97;53.72
74376;HTU21D;62812;55.188;61.302;2023-11-19T11:06:24;-3.02;54.07
74376;HTU21D;62812;55.188;61.302;2023-11-19T11:08:58;-3.05;54.52
74376;HTU21D;62812;55.188;61.302;2023-11-19T11:14:37;-3.10;54.36
74376;HTU21D;62812;55.188;61.302;2023-11-19T11:17:08;-3.11;54.70
74376;HTU21D;62812;55.188;61.302;2023-11-19T11:19:38;-3.17;54.46
74376;HTU21D;62812;55.188;61.302;2023-11-19T11:22:06;-3.20;55.00
74376;HTU21D;62812;55.188;61.302;2023-11-19T11:24:53;-3.15;55.40
74376;HTU21D;62812;55.188;61.302;2023-11-19T11:27:47;-3.06;55.02
74376;HTU21D;62812;55.188;61.302;2023-11-19T11:30:29;-3.04;54.46
74376;HTU21D;62812;55.188;61.302;2023-11-19T11:33:15;-3.06;54.47
74376;HTU21D;62812;55.188;61.302;2023-11-19T11:35:58;-3.00;58.32
74376;HTU21D;62812;55.188;61.302;2023-11-19T11:38:41;-3.03;56.67
74376;HTU21D;62812;55.188;61.302;2023-11-19T11:41:41;-3.08;54.82
74376;HTU21D;62812;55.188;61.302;2023-11-19T11:44:08;-3.16;55.53
74376;HTU21D;62812;55.188;61.302;2023-11-19T11:46:54;-3.11;55.84
74376;HTU21D;62812;55.188;61.302;2023-11-19T11:49:28;-3.07;59.87
74376;HTU21D;62812;55.188;61.302;2023-11-19T11:52:04;-3.11;56.00
74376;HTU21D;62812;55.188;61.302;2023-11-19T11:54:31;-3.23;56.38
74376;HTU21D;62812;55.188;61.302;2023-11-19T11:57:12;-3.24;56.64
74376;HTU21D;62812;55.188;61.302;2023-11-19T11:59:46;-3.25;57.22
74376;HTU21D;62812;55.188;61.302;2023-11-19T12:02:16;-3.34;57.09
74376;HTU21D;62812;55.188;61.302;2023-11-19T12:04:47;-3.43;57.35
74376;HTU21D;62812;55.188;61.302;2023-11-19T12:07:17;-3.49;57.87
74376;HTU21D;62812;55.188;61.302;2023-11-19T12:09:47;-3.58;57.93
74376;HTU21D;62812;55.188;61.302;2023-11-19T12:12:19;-3.65;58.51
74376;HTU21D;62812;55.188;61.302;2023-11-19T12:15:11;-3.70;58.66
74376;HTU21D;62812;55.188;61.302;2023-11-19T12:17:47;-3.77;59.07
74376;HTU21D;62812;55.188;61.302;2023-11-19T12:20:18;-3.85;58.90
74376;HTU21D;62812;55.188;61.302;2023-11-19T12:22:47;-3.92;59.57
74376;HTU21D;62812;55.188;61.302;2023-11-19T12:25:25;-3.86;59.03
74376;HTU21D;62812;55.188;61.302;2023-11-19T12:27:53;-3.90;59.09
74376;HTU21D;62812;55.188;61.302;2023-11-19T12:30:24;-3.96;59.28
74376;HTU21D;62812;55.188;61.302;2023-11-19T12:32:54;-4.01;59.49
74376;HTU21D;62812;55.188;61.302;2023-11-19T12:35:34;-4.13;59.33
74376;HTU21D;62812;55.188;61.302;2023-11-19T12:38:18;-4.12;58.79
74376;HTU21D;62812;55.188;61.302;2023-11-19T12:40:48;-4.14;58.71
74376;HTU21D;62812;55.188;61.302;2023-11-19T12:43:28;-4.17;59.11
74376;HTU21D;62812;55.188;61.302;2023-11-19T12:45:56;-4.20;59.16
74376;HTU21D;62812;55.188;61.302;2023-11-19T12:48:25;-4.16;60.16
74376;HTU21D;62812;55.188;61.302;2023-11-19T12:50:53;-4.11;59.64
74376;HTU21D;62812;55.188;61.302;2023-11-19T12:53:46;-4.10;58.87
74376;HTU21D;62812;55.188;61.302;2023-11-19T12:56:15;-4.15;59.32
74376;HTU21D;62812;55.188;61.302;2023-11-19T12:58:44;-4.22;59.18
74376;HTU21D;62812;55.188;61.302;2023-11-19T13:01:16;-4.28;58.77
74376;HTU21D;62812;55.188;61.302;2023-11-19T13:03:47;-4.35;59.23
74376;HTU21D;62812;55.188;61.302;2023-11-19T13:06:15;-4.41;59.48
74376;HTU21D;62812;55.188;61.302;2023-11-19T13:08:45;-4.44;59.78
74376;HTU21D;62812;55.188;61.302;2023-11-19T13:11:14;-4.50;59.96
74376;HTU21D;62812;55.188;61.302;2023-11-19T13:13:55;-4.48;59.82
74376;HTU21D;62812;55.188;61.302;2023-11-19T13:16:23;-4.49;59.63
74376;HTU21D;62812;55.188;61.302;2023-11-19T13:18:53;-4.53;59.67
74376;HTU21D;62812;55.188;61.302;2023-11-19T13:21:21;-4.53;59.75
74376;HTU21D;62812;55.188;61.302;2023-11-19T13:23:49;-4.54;60.09
74376;HTU21D;62812;55.188;61.302;2023-11-19T13:26:17;-4.59;60.11
74376;HTU21D;62812;55.188;61.302;2023-11-19T13:28:44;-4.64;60.10
74376;HTU21D;62812;55.188;61.302;2023-11-19T13:31:11;-4.64;60.46
74376;HTU21D;62812;55.188;61.302;2023-11-19T13:33:37;-4.68;60.09
74376;HTU21D;62812;55.188;61.302;2023-11-19T13:36:09;-4.68;60.44
74376;HTU21D;62812;55.188;61.302;2023-11-19T13:38:39;-4.71;59.55
74376;HTU21D;62812;55.188;61.302;2023-11-19T13:46:13;-4.68;59.06
74376;HTU21D;62812;55.188;61.302;2023-11-19T13:49:03;-4.64;59.77
74376;HTU21D;62812;55.188;61.302;2023-11-19T13:55:56;-4.54;60.42
74376;HTU21D;62812;55.188;61.302;2023-11-19T13:59:13;-4.52;59.60
74376;HTU21D;62812;55.188;61.302;2023-11-19T14:02:28;-4.63;58.54
74376;HTU21D;62812;55.188;61.302;2023-11-19T14:04:55;-4.68;58.64
74376;HTU21D;62812;55.188;61.302;2023-11-19T14:07:31;-4.75;58.83
74376;HTU21D;62812;55.188;61.302;2023-11-19T14:10:16;-4.84;60.60
74376;HTU21D;62812;55.188;61.302;2023-11-19T14:12:44;-4.86;59.86
74376;HTU21D;62812;55.188;61.302;2023-11-19T14:15:11;-4.87;59.71
74376;HTU21D;62812;55.188;61.302;2023-11-19T14:17:45;-4.94;59.67
74376;HTU21D;62812;55.188;61.302;2023-11-19T14:20:14;-4.99;60.15
74376;HTU21D;62812;55.188;61.302;2023-11-19T14:22:47;-5.02;60.70
74376;HTU21D;62812;55.188;61.302;2023-11-19T14:25:16;-5.04;60.22
74376;HTU21D;62812;55.188;61.302;2023-11-19T14:27:46;-5.05;61.03
74376;HTU21D;62812;55.188;61.302;2023-11-19T14:30:13;-5.07;60.34
74376;HTU21D;62812;55.188;61.302;2023-11-19T14:32:42;-5.07;60.38
74376;HTU21D;62812;55.188;61.302;2023-11-19T14:35:15;-5.11;60.76
74376;HTU21D;62812;55.188;61.302;2023-11-19T14:37:41;-5.14;60.40
74376;HTU21D;62812;55.188;61.302;2023-11-19T14:40:09;-5.19;60.78
74376;HTU21D;62812;55.188;61.302;2023-11-19T14:42:37;-5.20;61.13
74376;HTU21D;62812;55.188;61.302;2023-11-19T14:45:09;-5.25;61.05
74376;HTU21D;62812;55.188;61.302;2023-11-19T14:47:41;-5.25;62.44
74376;HTU21D;62812;55.188;61.302;2023-11-19T14:50:10;-5.30;60.67
74376;HTU21D;62812;55.188;61.302;2023-11-19T14:52:38;-5.33;60.97
74376;HTU21D;62812;55.188;61.302;2023-11-19T14:55:06;-5.31;61.62
74376;HTU21D;62812;55.188;61.302;2023-11-19T14:57:36;-5.37;60.59
74376;HTU21D;62812;55.188;61.302;2023-11-19T15:00:10;-5.43;61.65
74376;HTU21D;62812;55.188;61.302;2023-11-19T15:02:43;-5.43;63.82
74376;HTU21D;62812;55.188;61.302;2023-11-19T15:05:11;-5.43;61.26
74376;HTU21D;62812;55.188;61.302;2023-11-19T15:07:39;-5.45;61.29
74376;HTU21D;62812;55.188;61.302;2023-11-19T15:10:11;-5.46;61.33
74376;HTU21D;62812;55.188;61.302;2023-11-19T15:12:48;-5.52;61.03
74376;HTU21D;62812;55.188;61.302;2023-11-19T15:15:15;-5.59;61.25
74376;HTU21D;62812;55.188;61.302;2023-11-19T15:17:48;-5.65;61.80
74376;HTU21D;62812;55.188;61.302;2023-11-19T15:20:33;-5.69;61.67
74376;HTU21D;62812;55.188;61.302;2023-11-19T15:23:01;-5.75;62.03
74376;HTU21D;62812;55.188;61.302;2023-11-19T15:27:06;-5.78;62.41
74376;HTU21D;62812;55.188;61.302;2023-11-19T15:29:18;-5.78;61.67
74376;HTU21D;62812;55.188;61.302;2023-11-19T15:31:45;-5.78;62.03
74376;HTU21D;62812;55.188;61.302;2023-11-19T15:34:24;-5.79;62.24
74376;HTU21D;62812;55.188;61.302;2023-11-19T15:36:54;-5.79;62.04
74376;HTU21D;62812;55.188;61.302;2023-11-19T15:56:45;-6.01;62.80
74376;HTU21D;62812;55.188;61.302;2023-11-19T15:59:11;-5.99;62.76
74376;HTU21D;62812;55.188;61.302;2023-11-19T16:01:42;-5.98;62.92
74376;HTU21D;62812;55.188;61.302;2023-11-19T16:04:15;-6.01;62.83
74376;HTU21D;62812;55.188;61.302;2023-11-19T16:06:57;-6.06;63.30
74376;HTU21D;62812;55.188;61.302;2023-11-19T16:09:25;-6.08;63.68